sensor_id;sensor_type;location;lat;lon;timestamp;pressure;altitude;pressure_sealevel;temperature;humidity
61205;BME280;47068;55.780;37.520;2024-02-14T00:02:05;100940.34;;;-9.18;72.04
61205;BME280;47068;55.780;37.520;2024-02-14T00:04:30;100931.69;;;-9.07;72.06
61205;BME280;47068;55.780;37.520;2024-02-14T00:06:56;100938.56;;;-9.06;71.98
61205;BME280;47068;55.780;37.520;2024-02-14T00:09:21;100933.47;;;-9.19;71.78
61205;BME280;47068;55.780;37.520;2024-02-14T00:11:47;100937.00;;;-9.33;70.96
61205;BME280;47068;55.780;37.520;2024-02-14T00:14:12;100940.44;;;-9.30;71.17
61205;BME280;47068;55.780;37.520;2024-02-14T00:16:37;100933.47;;;-9.19;71.46
61205;BME280;47068;55.780;37.520;2024-02-14T00:19:04;100941.34;;;-9.34;70.63
61205;BME280;47068;55.780;37.520;2024-02-14T00:21:29;100935.28;;;-9.28;72.15
61205;BME280;47068;55.780;37.520;2024-02-14T00:23:54;100933.47;;;-9.14;71.98
61205;BME280;47068;55.780;37.520;2024-02-14T00:26:20;100929.13;;;-9.07;71.18
61205;BME280;47068;55.780;37.520;2024-02-14T00:28:46;100926.53;;;-9.07;71.27
61205;BME280;47068;55.780;37.520;2024-02-14T00:31:11;100930.81;;;-9.03;71.60
61205;BME280;47068;55.780;37.520;2024-02-14T00:33:36;100930.75;;;-8.97;70.96
61205;BME280;47068;55.780;37.520;2024-02-14T00:36:02;100934.19;;;-8.94;70.75
61205;BME280;47068;55.780;37.520;2024-02-14T00:38:27;100945.41;;;-8.99;69.37
61205;BME280;47068;55.780;37.520;2024-02-14T00:40:53;100941.22;;;-9.17;70.56
61205;BME280;47068;55.780;37.520;2024-02-14T00:43:18;100942.06;;;-9.17;71.29
61205;BME280;47068;55.780;37.520;2024-02-14T00:45:44;100938.53;;;-9.03;70.71
61205;BME280;47068;55.780;37.520;2024-02-14T00:48:09;100945.41;;;-9.04;69.36
61205;BME280;47068;55.780;37.520;2024-02-14T00:50:34;100945.59;;;-9.33;69.59
61205;BME280;47068;55.780;37.520;2024-02-14T00:53:00;100947.34;;;-9.38;71.23
61205;BME280;47068;55.780;37.520;2024-02-14T00:55:25;100951.69;;;-9.44;70.69
61205;BME280;47068;55.780;37.520;2024-02-14T00:57:51;100953.41;;;-9.42;71.73
61205;BME280;47068;55.780;37.520;2024-02-14T01:00:17;100946.56;;;-9.47;71.53
61205;BME280;47068;55.780;37.520;2024-02-14T01:02:42;100950.88;;;-9.54;70.27
61205;BME280;47068;55.780;37.520;2024-02-14T01:05:08;100951.81;;;-9.66;71.56
61205;BME280;47068;55.780;37.520;2024-02-14T01:07:34;100950.13;;;-9.68;71.07
61205;BME280;47068;55.780;37.520;2024-02-14T01:09:59;100956.06;;;-9.60;72.24
61205;BME280;47068;55.780;37.520;2024-02-14T01:12:25;100949.97;;;-9.47;71.71
61205;BME280;47068;55.780;37.520;2024-02-14T01:14:51;100959.41;;;-9.41;71.22
61205;BME280;47068;55.780;37.520;2024-02-14T01:17:16;100949.97;;;-9.42;70.29
61205;BME280;47068;55.780;37.520;2024-02-14T01:19:41;100960.28;;;-9.47;71.68
61205;BME280;47068;55.780;37.520;2024-02-14T01:22:07;100945.69;;;-9.40;71.60
61205;BME280;47068;55.780;37.520;2024-02-14T01:24:33;100952.59;;;-9.53;71.26
61205;BME280;47068;55.780;37.520;2024-02-14T01:26:59;100957.75;;;-9.50;71.34
61205;BME280;47068;55.780;37.520;2024-02-14T01:29:25;100951.00;;;-9.78;71.43
61205;BME280;47068;55.780;37.520;2024-02-14T01:31:50;100957.06;;;-9.95;71.10
61205;BME280;47068;55.780;37.520;2024-02-14T01:34:16;100970.06;;;-10.19;72.70
61205;BME280;47068;55.780;37.520;2024-02-14T01:36:41;100971.78;;;-10.21;73.18
61205;BME280;47068;55.780;37.520;2024-02-14T01:39:06;100966.66;;;-10.27;72.85
61205;BME280;47068;55.780;37.520;2024-02-14T01:41:36;100976.91;;;-10.22;73.20
61205;BME280;47068;55.780;37.520;2024-02-14T01:44:02;100978.66;;;-10.24;73.31
61205;BME280;47068;55.780;37.520;2024-02-14T01:46:27;100974.34;;;-10.27;72.77
61205;BME280;47068;55.780;37.520;2024-02-14T01:48:52;100978.66;;;-10.17;73.64
61205;BME280;47068;55.780;37.520;2024-02-14T01:51:19;100977.69;;;-10.01;73.57
61205;BME280;47068;55.780;37.520;2024-02-14T01:53:46;100983.66;;;-9.92;72.57
61205;BME280;47068;55.780;37.520;2024-02-14T01:56:11;100982.84;;;-10.08;71.47
61205;BME280;47068;55.780;37.520;2024-02-14T01:58:37;100982.09;;;-10.25;71.34
61205;BME280;47068;55.780;37.520;2024-02-14T02:01:03;100982.94;;;-10.23;72.54
61205;BME280;47068;55.780;37.520;2024-02-14T02:03:29;100984.66;;;-10.18;72.67
61205;BME280;47068;55.780;37.520;2024-02-14T02:05:55;100987.13;;;-9.97;73.28
61205;BME280;47068;55.780;37.520;2024-02-14T02:08:21;100994.81;;;-9.95;70.81
61205;BME280;47068;55.780;37.520;2024-02-14T02:10:46;100989.78;;;-10.28;71.50
61205;BME280;47068;55.780;37.520;2024-02-14T02:13:11;101001.84;;;-10.38;72.77
61205;BME280;47068;55.780;37.520;2024-02-14T02:15:37;101006.97;;;-10.49;72.37
61205;BME280;47068;55.780;37.520;2024-02-14T02:18:03;101001.81;;;-10.43;72.66
61205;BME280;47068;55.780;37.520;2024-02-14T02:20:31;101003.56;;;-10.46;72.32
61205;BME280;47068;55.780;37.520;2024-02-14T02:22:57;101000.13;;;-10.38;72.15
61205;BME280;47068;55.780;37.520;2024-02-14T02:25:22;101014.66;;;-10.20;72.69
61205;BME280;47068;55.780;37.520;2024-02-14T02:27:51;101007.81;;;-10.27;71.35
61205;BME280;47068;55.780;37.520;2024-02-14T02:30:16;101005.25;;;-10.36;72.35
61205;BME280;47068;55.780;37.520;2024-02-14T02:32:42;101007.81;;;-10.42;72.79
61205;BME280;47068;55.780;37.520;2024-02-14T02:35:07;101005.25;;;-10.42;72.52
61205;BME280;47068;55.780;37.520;2024-02-14T02:37:34;101011.25;;;-10.48;72.94
61205;BME280;47068;55.780;37.520;2024-02-14T02:40:00;101006.13;;;-10.61;72.08
61205;BME280;47068;55.780;37.520;2024-02-14T02:42:25;101008.69;;;-10.48;72.74
61205;BME280;47068;55.780;37.520;2024-02-14T02:44:50;101019.81;;;-10.29;72.30
61205;BME280;47068;55.780;37.520;2024-02-14T02:47:16;101018.94;;;-10.20;71.61
61205;BME280;47068;55.780;37.520;2024-02-14T02:49:45;101020.69;;;-10.31;70.95
61205;BME280;47068;55.780;37.520;2024-02-14T02:52:10;101030.97;;;-10.34;72.11
61205;BME280;47068;55.780;37.520;2024-02-14T02:54:36;101031.84;;;-10.37;72.31
61205;BME280;47068;55.780;37.520;2024-02-14T02:57:02;101024.97;;;-10.41;71.89
61205;BME280;47068;55.780;37.520;2024-02-14T02:59:30;101034.41;;;-10.36;72.50
61205;BME280;47068;55.780;37.520;2024-02-14T03:01:57;101031.84;;;-10.37;71.02
61205;BME280;47068;55.780;37.520;2024-02-14T03:04:23;101024.13;;;-10.45;72.20
61205;BME280;47068;55.780;37.520;2024-02-14T03:06:49;101042.97;;;-10.61;71.75
61205;BME280;47068;55.780;37.520;2024-02-14T03:09:14;101036.97;;;-10.64;72.99
61205;BME280;47068;55.780;37.520;2024-02-14T03:11:40;101037.84;;;-10.67;71.66
61205;BME280;47068;55.780;37.520;2024-02-14T03:14:06;101048.13;;;-10.67;72.75
61205;BME280;47068;55.780;37.520;2024-02-14T03:16:33;101042.13;;;-10.61;71.85
61205;BME280;47068;55.780;37.520;2024-02-14T03:18:58;101054.13;;;-10.59;72.80
61205;BME280;47068;55.780;37.520;2024-02-14T03:21:23;101048.13;;;-10.59;72.82
61205;BME280;47068;55.780;37.520;2024-02-14T03:23:49;101049.84;;;-10.45;72.44
61205;BME280;47068;55.780;37.520;2024-02-14T03:26:14;101045.56;;;-10.32;72.28
61205;BME280;47068;55.780;37.520;2024-02-14T03:28:40;101052.41;;;-10.19;71.52
61205;BME280;47068;55.780;37.520;2024-02-14T03:31:05;101045.56;;;-10.26;70.67
61205;BME280;47068;55.780;37.520;2024-02-14T03:33:30;101051.56;;;-10.39;71.42
61205;BME280;47068;55.780;37.520;2024-02-14T03:35:56;101058.44;;;-10.52;71.63
61205;BME280;47068;55.780;37.520;2024-02-14T03:38:27;101057.56;;;-10.40;72.11
61205;BME280;47068;55.780;37.520;2024-02-14T03:40:53;101068.72;;;-10.30;71.91
61205;BME280;47068;55.780;37.520;2024-02-14T03:43:19;101058.44;;;-10.46;70.61
61205;BME280;47068;55.780;37.520;2024-02-14T03:45:45;101057.56;;;-10.43;71.93
61205;BME280;47068;55.780;37.520;2024-02-14T03:48:11;101061.84;;;-10.60;71.03
61205;BME280;47068;55.780;37.520;2024-02-14T03:50:40;101070.38;;;-10.77;71.18
61205;BME280;47068;55.780;37.520;2024-02-14T03:53:05;101062.69;;;-10.80;71.88
61205;BME280;47068;55.780;37.520;2024-02-14T03:55:31;101070.41;;;-10.72;72.19
61205;BME280;47068;55.780;37.520;2024-02-14T03:57:56;101071.25;;;-10.70;71.31
61205;BME280;47068;55.780;37.520;2024-02-14T04:00:21;101066.13;;;-10.68;71.71
61205;BME280;47068;55.780;37.520;2024-02-14T04:02:47;101073.00;;;-10.55;71.88
61205;BME280;47068;55.780;37.520;2024-02-14T04:05:14;101076.44;;;-10.47;71.54
61205;BME280;47068;55.780;37.520;2024-02-14T04:07:39;101073.84;;;-10.61;71.20
61205;BME280;47068;55.780;37.520;2024-02-14T04:10:05;101067.84;;;-10.60;70.47
61205;BME280;47068;55.780;37.520;2024-02-14T04:12:30;101078.13;;;-10.64;70.93
61205;BME280;47068;55.780;37.520;2024-02-14T04:14:56;101077.25;;;-10.77;70.34
61205;BME280;47068;55.780;37.520;2024-02-14T04:17:21;101082.41;;;-10.80;71.35
61205;BME280;47068;55.780;37.520;2024-02-14T04:19:46;101081.47;;;-11.03;72.07
61205;BME280;47068;55.780;37.520;2024-02-14T04:22:12;101078.91;;;-10.99;70.81
61205;BME280;47068;55.780;37.520;2024-02-14T04:24:37;101073.78;;;-10.97;71.34
61205;BME280;47068;55.780;37.520;2024-02-14T04:27:03;101079.81;;;-10.94;70.96
61205;BME280;47068;55.780;37.520;2024-02-14T04:29:29;101086.66;;;-10.90;71.15
61205;BME280;47068;55.780;37.520;2024-02-14T04:31:55;101081.47;;;-11.02;70.95
61205;BME280;47068;55.780;37.520;2024-02-14T04:34:21;101084.88;;;-11.10;71.25
61205;BME280;47068;55.780;37.520;2024-02-14T04:36:46;101092.63;;;-10.95;72.44
61205;BME280;47068;55.780;37.520;2024-02-14T04:39:13;101098.59;;;-11.10;71.73
61205;BME280;47068;55.780;37.520;2024-02-14T04:41:38;101099.44;;;-11.05;71.40
61205;BME280;47068;55.780;37.520;2024-02-14T04:44:04;101098.63;;;-11.01;70.94
61205;BME280;47068;55.780;37.520;2024-02-14T04:46:32;101104.63;;;-10.94;72.08
61205;BME280;47068;55.780;37.520;2024-02-14T04:48:57;101104.59;;;-11.05;70.86
61205;BME280;47068;55.780;37.520;2024-02-14T04:51:22;101096.00;;;-11.16;70.82
61205;BME280;47068;55.780;37.520;2024-02-14T04:53:48;101108.00;;;-11.06;71.34
61205;BME280;47068;55.780;37.520;2024-02-14T04:56:13;101112.28;;;-11.11;71.34
61205;BME280;47068;55.780;37.520;2024-02-14T04:58:38;101112.19;;;-11.32;72.01
61205;BME280;47068;55.780;37.520;2024-02-14T05:01:04;101112.25;;;-11.22;72.03
61205;BME280;47068;55.780;37.520;2024-02-14T05:03:29;101117.44;;;-11.14;71.92
61205;BME280;47068;55.780;37.520;2024-02-14T05:05:54;101115.69;;;-11.18;71.20
61205;BME280;47068;55.780;37.520;2024-02-14T05:08:20;101127.69;;;-11.16;72.04
61205;BME280;47068;55.780;37.520;2024-02-14T05:10:45;101126.00;;;-11.15;71.24
61205;BME280;47068;55.780;37.520;2024-02-14T05:13:11;101126.88;;;-11.07;71.52
61205;BME280;47068;55.780;37.520;2024-02-14T05:15:38;101131.16;;;-11.09;70.61
61205;BME280;47068;55.780;37.520;2024-02-14T05:18:03;101133.75;;;-11.01;70.71
61205;BME280;47068;55.780;37.520;2024-02-14T05:20:30;101132.91;;;-11.00;71.43
61205;BME280;47068;55.780;37.520;2024-02-14T05:22:56;101138.06;;;-10.94;70.77
61205;BME280;47068;55.780;37.520;2024-02-14T05:25:21;101134.63;;;-10.90;70.22
61205;BME280;47068;55.780;37.520;2024-02-14T05:27:47;101129.47;;;-10.92;70.80
61205;BME280;47068;55.780;37.520;2024-02-14T05:30:12;101132.09;;;-10.78;70.94
61205;BME280;47068;55.780;37.520;2024-02-14T05:32:38;101126.09;;;-10.82;69.82
61205;BME280;47068;55.780;37.520;2024-02-14T05:35:04;101132.13;;;-10.73;70.36
61205;BME280;47068;55.780;37.520;2024-02-14T05:37:31;101148.34;;;-10.84;70.34
61205;BME280;47068;55.780;37.520;2024-02-14T05:39:56;101130.31;;;-11.03;69.74
61205;BME280;47068;55.780;37.520;2024-02-14T05:42:22;101144.00;;;-11.06;70.08
61205;BME280;47068;55.780;37.520;2024-02-14T05:44:48;101156.00;;;-11.02;69.98
61205;BME280;47068;55.780;37.520;2024-02-14T05:47:13;101148.31;;;-11.02;70.28
61205;BME280;47068;55.780;37.520;2024-02-14T05:49:39;101153.50;;;-10.84;69.90
61205;BME280;47068;55.780;37.520;2024-02-14T05:52:05;101150.94;;;-10.76;69.00
61205;BME280;47068;55.780;37.520;2024-02-14T05:54:30;101035.97;;;-11.48;68.68
61205;BME280;47068;55.780;37.520;2024-02-14T05:56:57;101160.34;;;-10.83;69.80
61205;BME280;47068;55.780;37.520;2024-02-14T05:59:24;101155.28;;;-10.61;69.46
61205;BME280;47068;55.780;37.520;2024-02-14T06:01:49;101163.91;;;-10.38;68.92
61205;BME280;47068;55.780;37.520;2024-02-14T06:04:15;101167.34;;;-10.33;67.36
61205;BME280;47068;55.780;37.520;2024-02-14T06:06:40;101164.78;;;-10.24;67.35
61205;BME280;47068;55.780;37.520;2024-02-14T06:09:05;101170.75;;;-10.14;66.83
61205;BME280;47068;55.780;37.520;2024-02-14T06:11:35;101168.19;;;-10.07;67.59
61205;BME280;47068;55.780;37.520;2024-02-14T06:14:00;101169.03;;;-10.14;66.04
61205;BME280;47068;55.780;37.520;2024-02-14T06:16:26;101168.19;;;-10.11;67.07
61205;BME280;47068;55.780;37.520;2024-02-14T06:18:51;101164.75;;;-9.87;67.77
61205;BME280;47068;55.780;37.520;2024-02-14T06:21:16;101160.41;;;-9.52;67.49
61205;BME280;47068;55.780;37.520;2024-02-14T06:23:42;101161.22;;;-9.39;65.24
61205;BME280;47068;55.780;37.520;2024-02-14T06:26:07;101165.56;;;-9.49;64.15
61205;BME280;47068;55.780;37.520;2024-02-14T06:28:32;101170.75;;;-9.76;63.89
61205;BME280;47068;55.780;37.520;2024-02-14T06:30:58;101176.75;;;-9.88;64.99
61205;BME280;47068;55.780;37.520;2024-02-14T06:33:23;101170.75;;;-9.99;65.70
61205;BME280;47068;55.780;37.520;2024-02-14T06:35:49;101170.75;;;-9.76;65.93
61205;BME280;47068;55.780;37.520;2024-02-14T06:38:14;101175.00;;;-9.52;65.74
61205;BME280;47068;55.780;37.520;2024-02-14T06:40:39;101174.13;;;-9.47;64.35
61205;BME280;47068;55.780;37.520;2024-02-14T06:43:05;101173.28;;;-9.50;63.30
61205;BME280;47068;55.780;37.520;2024-02-14T06:45:31;101180.19;;;-9.65;64.72
61205;BME280;47068;55.780;37.520;2024-02-14T06:47:57;101175.84;;;-9.44;65.04
61205;BME280;47068;55.780;37.520;2024-02-14T06:50:22;101180.13;;;-9.37;63.35
61205;BME280;47068;55.780;37.520;2024-02-14T06:52:50;101162.88;;;-9.12;63.95
61205;BME280;47068;55.780;37.520;2024-02-14T06:55:16;101169.75;;;-9.08;62.85
61205;BME280;47068;55.780;37.520;2024-02-14T06:57:42;101177.44;;;-8.98;62.64
61205;BME280;47068;55.780;37.520;2024-02-14T07:00:07;101175.59;;;-8.67;63.23
61205;BME280;47068;55.780;37.520;2024-02-14T07:02:34;101176.28;;;-8.42;61.69
61205;BME280;47068;55.780;37.520;2024-02-14T07:04:59;101175.59;;;-8.70;61.51
61205;BME280;47068;55.780;37.520;2024-02-14T07:07:24;101175.66;;;-8.79;61.66
61205;BME280;47068;55.780;37.520;2024-02-14T07:09:50;101166.88;;;-8.45;62.41
61205;BME280;47068;55.780;37.520;2024-02-14T07:12:16;101169.28;;;-8.28;61.47
61205;BME280;47068;55.780;37.520;2024-02-14T07:14:41;101172.59;;;-8.08;60.77
61205;BME280;47068;55.780;37.520;2024-02-14T07:17:07;101185.53;;;-8.15;60.21
61205;BME280;47068;55.780;37.520;2024-02-14T07:19:32;101178.84;;;-8.34;60.23
61205;BME280;47068;55.780;37.520;2024-02-14T07:21:57;101183.25;;;-8.55;60.90
61205;BME280;47068;55.780;37.520;2024-02-14T07:24:23;101175.56;;;-8.62;61.32
61205;BME280;47068;55.780;37.520;2024-02-14T07:26:48;101185.03;;;-8.64;60.99
61205;BME280;47068;55.780;37.520;2024-02-14T07:29:13;101190.28;;;-8.78;62.00
61205;BME280;47068;55.780;37.520;2024-02-14T07:31:39;101184.06;;;-8.47;62.70
61205;BME280;47068;55.780;37.520;2024-02-14T07:34:04;101185.44;;;-7.96;62.26
61205;BME280;47068;55.780;37.520;2024-02-14T07:36:31;101178.34;;;-7.74;60.91
61205;BME280;47068;55.780;37.520;2024-02-14T07:38:56;101187.78;;;-7.71;59.70
61205;BME280;47068;55.780;37.520;2024-02-14T07:41:21;101177.50;;;-7.76;58.82
61205;BME280;47068;55.780;37.520;2024-02-14T07:43:47;101176.91;;;-7.13;58.80
61205;BME280;47068;55.780;37.520;2024-02-14T07:46:19;101181.97;;;-6.37;57.34
61205;BME280;47068;55.780;37.520;2024-02-14T07:48:44;101179.50;;;-6.46;56.41
61205;BME280;47068;55.780;37.520;2024-02-14T07:51:09;101177.16;;;-6.06;55.23
61205;BME280;47068;55.780;37.520;2024-02-14T07:53:35;101196.66;;;-5.82;53.05
61205;BME280;47068;55.780;37.520;2024-02-14T07:56:00;101179.63;;;-5.95;54.59
61205;BME280;47068;55.780;37.520;2024-02-14T07:58:26;101182.41;;;-6.09;53.43
61205;BME280;47068;55.780;37.520;2024-02-14T08:00:51;101186.47;;;-6.51;55.27
61205;BME280;47068;55.780;37.520;2024-02-14T08:03:16;101185.13;;;-6.80;55.29
61205;BME280;47068;55.780;37.520;2024-02-14T08:05:42;101185.91;;;-6.76;55.83
61205;BME280;47068;55.780;37.520;2024-02-14T08:08:07;101180.53;;;-6.59;56.56
61205;BME280;47068;55.780;37.520;2024-02-14T08:10:33;101178.34;;;-6.27;56.87
61205;BME280;47068;55.780;37.520;2024-02-14T08:12:58;101192.03;;;-6.19;54.88
61205;BME280;47068;55.780;37.520;2024-02-14T08:15:23;101198.13;;;-6.86;55.41
61205;BME280;47068;55.780;37.520;2024-02-14T08:17:49;101200.09;;;-7.09;56.25
61205;BME280;47068;55.780;37.520;2024-02-14T08:20:14;101196.88;;;-7.29;57.59
61205;BME280;47068;55.780;37.520;2024-02-14T08:22:40;101200.97;;;-7.08;58.01
61205;BME280;47068;55.780;37.520;2024-02-14T08:25:05;101193.22;;;-7.10;57.04
61205;BME280;47068;55.780;37.520;2024-02-14T08:27:31;101199.41;;;-7.23;57.36
61205;BME280;47068;55.780;37.520;2024-02-14T08:29:56;101206.63;;;-7.56;58.44
61205;BME280;47068;55.780;37.520;2024-02-14T08:32:22;101203.94;;;-7.46;58.40
61205;BME280;47068;55.780;37.520;2024-02-14T08:34:47;101205.88;;;-7.73;58.56
61205;BME280;47068;55.780;37.520;2024-02-14T08:37:13;101207.66;;;-7.79;59.01
61205;BME280;47068;55.780;37.520;2024-02-14T08:39:38;101210.88;;;-7.51;58.97
61205;BME280;47068;55.780;37.520;2024-02-14T08:42:03;101206.63;;;-7.54;58.64
61205;BME280;47068;55.780;37.520;2024-02-14T08:44:33;101201.25;;;-7.37;58.77
61205;BME280;47068;55.780;37.520;2024-02-14T08:46:58;101199.25;;;-7.11;59.12
61205;BME280;47068;55.780;37.520;2024-02-14T08:49:24;101207.22;;;-7.28;58.10
61205;BME280;47068;55.780;37.520;2024-02-14T08:51:49;101214.44;;;-7.65;58.00
61205;BME280;47068;55.780;37.520;2024-02-14T08:54:15;101209.38;;;-7.77;58.99
61205;BME280;47068;55.780;37.520;2024-02-14T08:56:41;101219.75;;;-7.81;59.22
61205;BME280;47068;55.780;37.520;2024-02-14T08:59:06;101211.16;;;-7.82;59.04
61205;BME280;47068;55.780;37.520;2024-02-14T09:01:32;101218.06;;;-7.85;59.02
61205;BME280;47068;55.780;37.520;2024-02-14T09:03:57;101212.94;;;-7.95;59.66
61205;BME280;47068;55.780;37.520;2024-02-14T09:06:24;101213.66;;;-7.74;59.32
61205;BME280;47068;55.780;37.520;2024-02-14T09:08:49;101213.66;;;-7.74;59.07
61205;BME280;47068;55.780;37.520;2024-02-14T09:11:18;101211.03;;;-7.70;59.67
61205;BME280;47068;55.780;37.520;2024-02-14T09:13:43;101210.38;;;-7.95;59.52
61205;BME280;47068;55.780;37.520;2024-02-14T09:16:09;101208.47;;;-7.71;59.57
61205;BME280;47068;55.780;37.520;2024-02-14T09:18:35;101214.13;;;-7.31;60.36
61205;BME280;47068;55.780;37.520;2024-02-14T09:21:00;101208.88;;;-7.22;58.17
61205;BME280;47068;55.780;37.520;2024-02-14T09:23:28;101221.81;;;-7.25;58.27
61205;BME280;47068;55.780;37.520;2024-02-14T09:25:54;101229.88;;;-7.56;57.66
61205;BME280;47068;55.780;37.520;2024-02-14T09:28:20;101234.25;;;-7.62;59.27
61205;BME280;47068;55.780;37.520;2024-02-14T09:30:45;101221.22;;;-7.51;59.86
61205;BME280;47068;55.780;37.520;2024-02-14T09:33:12;101219.41;;;-7.40;58.58
61205;BME280;47068;55.780;37.520;2024-02-14T09:35:37;101222.66;;;-7.23;58.90
61205;BME280;47068;55.780;37.520;2024-02-14T09:38:04;101220.81;;;-7.09;58.92
61205;BME280;47068;55.780;37.520;2024-02-14T09:40:30;101226.06;;;-7.17;58.26
61205;BME280;47068;55.780;37.520;2024-02-14T09:42:56;101220.88;;;-7.15;58.96
61205;BME280;47068;55.780;37.520;2024-02-14T09:45:26;101215.53;;;-7.00;59.24
61205;BME280;47068;55.780;37.520;2024-02-14T09:47:52;101213.59;;;-6.83;59.06
61205;BME280;47068;55.780;37.520;2024-02-14T09:50:19;101216.94;;;-6.71;57.96
61205;BME280;47068;55.780;37.520;2024-02-14T09:52:45;101219.78;;;-6.96;58.03
61205;BME280;47068;55.780;37.520;2024-02-14T09:55:13;101222.53;;;-7.08;58.90
61205;BME280;47068;55.780;37.520;2024-02-14T09:57:40;101224.97;;;-6.94;58.92
61205;BME280;47068;55.780;37.520;2024-02-14T10:00:06;101224.81;;;-6.82;58.59
61205;BME280;47068;55.780;37.520;2024-02-14T10:02:34;101220.66;;;-6.97;58.52
61205;BME280;47068;55.780;37.520;2024-02-14T10:05:00;101222.31;;;-6.90;59.24
61205;BME280;47068;55.780;37.520;2024-02-14T10:07:25;101224.56;;;-6.62;59.37
61205;BME280;47068;55.780;37.520;2024-02-14T10:09:51;101226.19;;;-6.52;58.35
61205;BME280;47068;55.780;37.520;2024-02-14T10:12:16;101222.22;;;-6.81;57.94
61205;BME280;47068;55.780;37.520;2024-02-14T10:14:43;101214.69;;;-7.02;57.99
61205;BME280;47068;55.780;37.520;2024-02-14T10:17:08;101213.97;;;-7.13;58.73
61205;BME280;47068;55.780;37.520;2024-02-14T10:19:35;101218.06;;;-6.97;59.42
61205;BME280;47068;55.780;37.520;2024-02-14T10:22:00;101221.28;;;-6.77;59.01
61205;BME280;47068;55.780;37.520;2024-02-14T10:24:30;101215.22;;;-6.72;58.50
61205;BME280;47068;55.780;37.520;2024-02-14T10:26:56;101217.53;;;-6.51;59.50
61205;BME280;47068;55.780;37.520;2024-02-14T10:29:22;101216.50;;;-6.38;58.58
61205;BME280;47068;55.780;37.520;2024-02-14T10:31:48;101216.19;;;-6.81;57.77
61205;BME280;47068;55.780;37.520;2024-02-14T10:34:13;101225.91;;;-7.01;58.95
61205;BME280;47068;55.780;37.520;2024-02-14T10:36:39;101221.44;;;-6.90;59.13
61205;BME280;47068;55.780;37.520;2024-02-14T10:39:05;101214.56;;;-6.91;59.15
61205;BME280;47068;55.780;37.520;2024-02-14T10:41:32;101225.75;;;-6.88;58.71
61205;BME280;47068;55.780;37.520;2024-02-14T10:44:01;101230.06;;;-6.87;59.29
61205;BME280;47068;55.780;37.520;2024-02-14T10:46:28;101223.38;;;-7.07;59.28
61205;BME280;47068;55.780;37.520;2024-02-14T10:49:06;101226.81;;;-7.07;59.96
61205;BME280;47068;55.780;37.520;2024-02-14T10:51:33;101229.28;;;-6.96;59.51
61205;BME280;47068;55.780;37.520;2024-02-14T10:54:12;101222.34;;;-6.93;59.42
61205;BME280;47068;55.780;37.520;2024-02-14T10:56:41;101226.72;;;-6.98;59.52
61205;BME280;47068;55.780;37.520;2024-02-14T10:59:09;101227.84;;;-7.23;59.79
61205;BME280;47068;55.780;37.520;2024-02-14T11:01:36;101217.41;;;-7.12;60.37
61205;BME280;47068;55.780;37.520;2024-02-14T11:04:02;101219.53;;;-6.71;60.39
61205;BME280;47068;55.780;37.520;2024-02-14T11:06:29;101230.31;;;-6.39;59.34
61205;BME280;47068;55.780;37.520;2024-02-14T11:09:00;101227.56;;;-6.28;58.32
61205;BME280;47068;55.780;37.520;2024-02-14T11:11:29;101219.31;;;-6.56;58.67
61205;BME280;47068;55.780;37.520;2024-02-14T11:13:56;101224.28;;;-6.41;58.36
61205;BME280;47068;55.780;37.520;2024-02-14T11:16:25;101236.69;;;-6.64;59.00
61205;BME280;47068;55.780;37.520;2024-02-14T11:18:53;101236.72;;;-6.67;59.60
61205;BME280;47068;55.780;37.520;2024-02-14T11:21:19;101223.00;;;-6.76;59.93
61205;BME280;47068;55.780;37.520;2024-02-14T11:23:53;101218.63;;;-6.70;60.02
61205;BME280;47068;55.780;37.520;2024-02-14T11:26:19;101227.19;;;-6.64;59.89
61205;BME280;47068;55.780;37.520;2024-02-14T11:28:45;101226.50;;;-6.78;59.55
61205;BME280;47068;55.780;37.520;2024-02-14T11:31:10;101219.69;;;-6.87;60.17
61205;BME280;47068;55.780;37.520;2024-02-14T11:33:35;101222.94;;;-6.69;60.42
61205;BME280;47068;55.780;37.520;2024-02-14T11:36:07;101223.69;;;-6.61;59.84
61205;BME280;47068;55.780;37.520;2024-02-14T11:38:35;101225.25;;;-6.48;59.46
61205;BME280;47068;55.780;37.520;2024-02-14T11:41:01;101226.19;;;-6.52;59.35
61205;BME280;47068;55.780;37.520;2024-02-14T11:43:27;101217.47;;;-6.45;59.86
61205;BME280;47068;55.780;37.520;2024-02-14T11:45:52;101216.22;;;-6.20;59.50
61205;BME280;47068;55.780;37.520;2024-02-14T11:48:18;101225.63;;;-6.13;59.45
61205;BME280;47068;55.780;37.520;2024-02-14T11:50:45;101216.22;;;-6.20;59.06
61205;BME280;47068;55.780;37.520;2024-02-14T11:53:11;101219.00;;;-6.32;58.74
61205;BME280;47068;55.780;37.520;2024-02-14T11:55:37;101218.94;;;-6.29;59.64
61205;BME280;47068;55.780;37.520;2024-02-14T11:58:06;101223.59;;;-6.54;59.41
61205;BME280;47068;55.780;37.520;2024-02-14T12:00:32;101222.84;;;-6.63;59.85
61205;BME280;47068;55.780;37.520;2024-02-14T12:02:58;101221.00;;;-6.52;59.94
61205;BME280;47068;55.780;37.520;2024-02-14T12:05:24;101219.31;;;-6.56;60.01
61205;BME280;47068;55.780;37.520;2024-02-14T12:07:49;101223.63;;;-6.55;60.29
61205;BME280;47068;55.780;37.520;2024-02-14T12:10:15;101219.69;;;-6.85;60.33
61205;BME280;47068;55.780;37.520;2024-02-14T12:12:44;101211.84;;;-6.79;60.53
61205;BME280;47068;55.780;37.520;2024-02-14T12:15:10;101221.13;;;-6.63;60.44
61205;BME280;47068;55.780;37.520;2024-02-14T12:17:36;101221.03;;;-6.55;60.66
61205;BME280;47068;55.780;37.520;2024-02-14T12:20:08;101213.16;;;-6.48;60.74
61205;BME280;47068;55.780;37.520;2024-02-14T12:22:44;101215.63;;;-6.37;60.47
61205;BME280;47068;55.780;37.520;2024-02-14T12:25:14;101216.28;;;-6.23;60.35
61205;BME280;47068;55.780;37.520;2024-02-14T12:27:41;101218.25;;;-6.40;59.81
61205;BME280;47068;55.780;37.520;2024-02-14T12:30:06;101222.03;;;-6.65;60.01